Lady Helen — WDI8693 — position and weather

sailwx.info

Track history (hours):
 
Tides and Currents Weather Stations Pressure Air Temp Water Temp Dewpoint Dewpoint Depression Visibility Wind Speed Wind Dir Waves Ship Positions

Lady Helen

Owner: kelley, Scott, COCONUT CREEK, FL. More information available from US FCC via Universal Licensing System and Coast Guard Vessel Documentation Center.

Last reported at 2017-Oct-17 14:54 UTC. Time now 2017-Oct-19 09:12 UTC.
Position N 26°43' W 080°03'.

Length 26 m; draft 2 m.

Type: Pleasure craft. MMSI: 367741210.

Date/timePositionNaut miles runAvg speedWind from/ knotsBaromVisibWave heightAir tempDewpointWater temp
2017-Oct-17 14:54N 26°43' W 080°03'0 0.0
2017-Oct-17 14:30N 26°43' W 080°03'0 0.0
2017-Oct-17 14:00N 26°43' W 080°03'0 0.0
2017-Oct-17 13:30N 26°43' W 080°03'0 0.0
2017-Oct-17 12:59N 26°43' W 080°03'  
2017-Oct-10 16:17N 26°50' W 080°01'311.2
2017-Oct-10 16:00N 26°53' W 080°01'510.6
2017-Oct-10 15:30N 26°58' W 080°02'481 9.9
2017-Oct-08 15:00N 34°30' W 076°50'611.3
2017-Oct-08 14:30N 34°35' W 076°46'611.5
2017-Oct-08 14:00N 34°39' W 076°41'4 7.9
2017-Oct-08 13:30N 34°43' W 076°40'0 0.5
2017-Oct-08 13:00N 34°43' W 076°40'0 0.0
2017-Oct-08 12:30N 34°43' W 076°40'0 0.0
2017-Oct-08 12:00N 34°43' W 076°40'0 0.0
2017-Oct-08 11:30N 34°43' W 076°40'0 0.0
2017-Oct-08 11:00N 34°43' W 076°40'0 0.0
2017-Oct-08 10:30N 34°43' W 076°40'0 0.0
2017-Oct-08 10:00N 34°43' W 076°40'0 0.0
2017-Oct-08 09:30N 34°43' W 076°40'0 0.0
2017-Oct-08 09:00N 34°43' W 076°40'0 0.0
2017-Oct-08 08:30N 34°43' W 076°40'0 0.0
2017-Oct-08 08:00N 34°43' W 076°40'0 0.0
2017-Oct-08 07:30N 34°43' W 076°40'0 0.0
2017-Oct-08 07:00N 34°43' W 076°40'0 0.0
2017-Oct-08 06:30N 34°43' W 076°40'0 0.0
2017-Oct-08 06:00N 34°43' W 076°40'0 0.0
2017-Oct-08 05:30N 34°43' W 076°40'0 0.0
2017-Oct-08 05:00N 34°43' W 076°40'0 0.0
2017-Oct-08 04:30N 34°43' W 076°40'0 0.0
2017-Oct-08 04:00N 34°43' W 076°40'0 0.0
2017-Oct-08 03:30N 34°43' W 076°40'0 0.0
2017-Oct-08 03:00N 34°43' W 076°40'0 0.0
2017-Oct-08 02:30N 34°43' W 076°40'0 0.0
2017-Oct-08 02:00N 34°43' W 076°40'0 0.0
2017-Oct-08 01:30N 34°43' W 076°40'0 0.0
2017-Oct-08 01:00N 34°43' W 076°40'0 0.0
2017-Oct-08 00:30N 34°43' W 076°40'0 0.0
2017-Oct-08 00:00N 34°43' W 076°40'0 0.0
2017-Oct-07 23:30N 34°43' W 076°40'0 0.0
2017-Oct-07 23:00N 34°43' W 076°40'0 0.0
2017-Oct-07 22:30N 34°43' W 076°40'0 0.0
2017-Oct-07 22:00N 34°43' W 076°40'0 0.0
2017-Oct-07 21:30N 34°43' W 076°40'0 0.0
2017-Oct-07 21:00N 34°43' W 076°40'0 0.0
2017-Oct-07 20:30N 34°43' W 076°40'0 0.0
2017-Oct-07 20:00N 34°43' W 076°40'0 0.0
2017-Oct-07 19:30N 34°43' W 076°40'0 0.0
2017-Oct-07 19:00N 34°43' W 076°40'0 0.0
2017-Oct-07 18:30N 34°43' W 076°40'0 0.0
2017-Oct-07 18:00N 34°43' W 076°40'0 0.0
2017-Oct-07 17:30N 34°43' W 076°40'1 1.9
2017-Oct-07 17:01N 34°42' W 076°41'4 8.2
2017-Oct-07 16:30N 34°46' W 076°41'4 7.1
2017-Oct-07 16:00N 34°50' W 076°41'4 7.1
2017-Oct-07 15:30N 34°53' W 076°41'4 7.2
2017-Oct-07 15:00N 34°57' W 076°40'  
Track history (hours):
 
Tides and Currents Weather Stations Pressure Air Temp Water Temp Dewpoint Dewpoint Depression Visibility Wind Speed Wind Dir Waves Ship Positions

Lady Helen

Owner: kelley, Scott, COCONUT CREEK, FL. More information available from US FCC via Universal Licensing System and Coast Guard Vessel Documentation Center.

Last reported at 2017-Oct-17 14:54 UTC. Time now 2017-Oct-19 09:12 UTC.
Position N 26°43' W 080°03'.

Length 26 m; draft 2 m.

Type: Pleasure craft. MMSI: 367741210.

Date/timePositionNaut miles runAvg speedWind from/ knotsBaromVisibWave heightAir tempDewpointWater temp
2017-Oct-17 14:54N 26°43' W 080°03'0 0.0
2017-Oct-17 14:30N 26°43' W 080°03'0 0.0
2017-Oct-17 14:00N 26°43' W 080°03'0 0.0
2017-Oct-17 13:30N 26°43' W 080°03'0 0.0
2017-Oct-17 12:59N 26°43' W 080°03'  
2017-Oct-10 16:17N 26°50' W 080°01'311.2
2017-Oct-10 16:00N 26°53' W 080°01'510.6
2017-Oct-10 15:30N 26°58' W 080°02'481 9.9
2017-Oct-08 15:00N 34°30' W 076°50'611.3
2017-Oct-08 14:30N 34°35' W 076°46'611.5
2017-Oct-08 14:00N 34°39' W 076°41'4 7.9
2017-Oct-08 13:30N 34°43' W 076°40'0 0.5
2017-Oct-08 13:00N 34°43' W 076°40'0 0.0
2017-Oct-08 12:30N 34°43' W 076°40'0 0.0
2017-Oct-08 12:00N 34°43' W 076°40'0 0.0
2017-Oct-08 11:30N 34°43' W 076°40'0 0.0
2017-Oct-08 11:00N 34°43' W 076°40'0 0.0
2017-Oct-08 10:30N 34°43' W 076°40'0 0.0
2017-Oct-08 10:00N 34°43' W 076°40'0 0.0
2017-Oct-08 09:30N 34°43' W 076°40'0 0.0
2017-Oct-08 09:00N 34°43' W 076°40'0 0.0
2017-Oct-08 08:30N 34°43' W 076°40'0 0.0
2017-Oct-08 08:00N 34°43' W 076°40'0 0.0
2017-Oct-08 07:30N 34°43' W 076°40'0 0.0
2017-Oct-08 07:00N 34°43' W 076°40'0 0.0
2017-Oct-08 06:30N 34°43' W 076°40'0 0.0
2017-Oct-08 06:00N 34°43' W 076°40'0 0.0
2017-Oct-08 05:30N 34°43' W 076°40'0 0.0
2017-Oct-08 05:00N 34°43' W 076°40'0 0.0
2017-Oct-08 04:30N 34°43' W 076°40'0 0.0
2017-Oct-08 04:00N 34°43' W 076°40'0 0.0
2017-Oct-08 03:30N 34°43' W 076°40'0 0.0
2017-Oct-08 03:00N 34°43' W 076°40'0 0.0
2017-Oct-08 02:30N 34°43' W 076°40'0 0.0
2017-Oct-08 02:00N 34°43' W 076°40'0 0.0
2017-Oct-08 01:30N 34°43' W 076°40'0 0.0
2017-Oct-08 01:00N 34°43' W 076°40'0 0.0
2017-Oct-08 00:30N 34°43' W 076°40'0 0.0
2017-Oct-08 00:00N 34°43' W 076°40'0 0.0
2017-Oct-07 23:30N 34°43' W 076°40'0 0.0
2017-Oct-07 23:00N 34°43' W 076°40'0 0.0
2017-Oct-07 22:30N 34°43' W 076°40'0 0.0
2017-Oct-07 22:00N 34°43' W 076°40'0 0.0
2017-Oct-07 21:30N 34°43' W 076°40'0 0.0
2017-Oct-07 21:00N 34°43' W 076°40'0 0.0
2017-Oct-07 20:30N 34°43' W 076°40'0 0.0
2017-Oct-07 20:00N 34°43' W 076°40'0 0.0
2017-Oct-07 19:30N 34°43' W 076°40'0 0.0
2017-Oct-07 19:00N 34°43' W 076°40'0 0.0
2017-Oct-07 18:30N 34°43' W 076°40'0 0.0
2017-Oct-07 18:00N 34°43' W 076°40'0 0.0
2017-Oct-07 17:30N 34°43' W 076°40'1 1.9
2017-Oct-07 17:01N 34°42' W 076°41'4 8.2
2017-Oct-07 16:30N 34°46' W 076°41'4 7.1
2017-Oct-07 16:00N 34°50' W 076°41'4 7.1
2017-Oct-07 15:30N 34°53' W 076°41'4 7.2
2017-Oct-07 15:00N 34°57' W 076°40'  

Dump ship's entire track history